createdAt,value
2018-10-07T00:00:48.463Z,96.51
2018-10-07T00:01:48.504Z,96.81
2018-10-07T00:02:48.434Z,96.81
2018-10-07T00:03:48.425Z,96.71
2018-10-07T00:04:48.452Z,96.41
2018-10-07T00:05:48.400Z,96.71
2018-10-07T00:06:48.397Z,96.51
2018-10-07T00:07:48.401Z,96.86
2018-10-07T00:08:48.371Z,96.92
2018-10-07T00:09:48.357Z,96.66
2018-10-07T00:10:48.413Z,96.45
2018-10-07T00:11:48.380Z,96.55
2018-10-07T00:12:48.328Z,96.55
2018-10-07T00:13:48.319Z,96.61
2018-10-07T00:14:48.303Z,96.86
2018-10-07T00:15:48.309Z,96.86
2018-10-07T00:16:48.282Z,97.06
2018-10-07T00:17:48.275Z,97.02
2018-10-07T00:18:48.310Z,96.66
2018-10-07T00:19:48.249Z,97.27
2018-10-07T00:20:48.235Z,96.86
2018-10-07T00:21:48.230Z,97.47
2018-10-07T00:22:48.219Z,97.78
2018-10-07T00:23:48.202Z,97.98
2018-10-07T00:24:48.183Z,97.67
2018-10-07T00:25:48.244Z,97.67
2018-10-07T00:26:48.160Z,97.57
2018-10-07T00:27:48.163Z,97.16
2018-10-07T00:28:48.159Z,97.47
2018-10-07T00:29:48.124Z,97.16
2018-10-07T00:30:48.139Z,97.16
2018-10-07T00:31:48.112Z,97.37
2018-10-07T00:32:48.202Z,96.96
2018-10-07T00:33:48.094Z,97.16
2018-10-07T00:34:48.079Z,97.67
2018-10-07T00:35:48.057Z,97.57
2018-10-07T00:36:48.059Z,97.98
2018-10-07T00:37:48.045Z,97.98
2018-10-07T00:38:48.037Z,97.78
2018-10-07T00:39:48.013Z,97.67
2018-10-07T00:40:48.028Z,97.88
2018-10-07T00:41:48.024Z,97.88
2018-10-07T00:42:47.979Z,97.78
2018-10-07T00:43:47.987Z,97.88
2018-10-07T00:44:47.959Z,97.57
2018-10-07T00:45:47.946Z,97.67
2018-10-07T00:46:47.937Z,97.67
2018-10-07T00:47:48.031Z,97.47
2018-10-07T00:48:47.916Z,98.18
2018-10-07T00:49:47.912Z,97.98
2018-10-07T00:50:47.894Z,97.47
2018-10-07T00:51:47.892Z,97.06
2018-10-07T00:52:47.874Z,97.27
2018-10-07T00:53:47.864Z,97.37
2018-10-07T00:54:47.921Z,97.27
2018-10-07T00:55:47.840Z,97.06
2018-10-07T00:56:47.837Z,97.06
2018-10-07T00:57:47.814Z,96.66
2018-10-07T00:58:47.803Z,96.91
2018-10-07T00:59:47.916Z,96.80
2018-10-07T01:00:47.780Z,97.00
2018-10-07T01:01:47.769Z,97.21
2018-10-07T01:02:47.864Z,97.31
2018-10-07T01:03:47.747Z,97.11
2018-10-07T01:04:47.785Z,97.00
2018-10-07T01:05:47.725Z,97.11
2018-10-07T01:06:47.713Z,96.91
2018-10-07T01:07:47.723Z,97.72
2018-10-07T01:08:47.728Z,97.82
2018-10-07T01:09:47.680Z,98.13
2018-10-07T01:10:47.702Z,97.82
2018-10-07T01:11:47.690Z,97.62
2018-10-07T01:12:47.652Z,97.52
2018-10-07T01:13:47.652Z,97.56
2018-10-07T01:14:47.631Z,97.62
2018-10-07T01:15:47.742Z,97.05
2018-10-07T01:16:47.607Z,97.21
2018-10-07T01:17:47.592Z,97.00
2018-10-07T01:18:47.582Z,97.16
2018-10-07T01:19:47.568Z,97.11
2018-10-07T01:20:47.574Z,97.31
2018-10-07T01:21:47.580Z,97.41
2018-10-07T01:22:47.618Z,96.91
2018-10-07T01:23:47.524Z,97.00
2018-10-07T01:24:47.531Z,97.31
2018-10-07T01:25:47.501Z,97.31
2018-10-07T01:26:47.494Z,96.95
2018-10-07T01:27:47.479Z,97.62
2018-10-07T01:28:47.526Z,97.41
2018-10-07T01:29:47.458Z,97.21
2018-10-07T01:30:47.450Z,97.62
2018-10-07T01:31:47.445Z,97.11
2018-10-07T01:32:47.434Z,97.72
2018-10-07T01:33:47.412Z,97.41
2018-10-07T01:34:47.453Z,97.41
2018-10-07T01:35:47.395Z,97.05
2018-10-07T01:37:56.542Z,97.72
2018-10-07T01:38:56.520Z,97.77
2018-10-07T01:39:56.526Z,97.25
2018-10-07T01:40:56.507Z,96.95
2018-10-07T01:41:56.479Z,97.66
2018-10-07T01:42:56.482Z,97.87
2018-10-07T01:43:56.467Z,98.18
2018-10-07T01:44:56.479Z,98.27
2018-10-07T01:45:56.445Z,97.97
2018-10-07T01:46:56.440Z,98.07
2018-10-07T01:47:56.438Z,98.07
2018-10-07T01:48:56.424Z,98.07
2018-10-07T01:49:56.412Z,97.87
2018-10-07T01:50:56.390Z,97.56
2018-10-07T01:51:56.376Z,97.56
2018-10-07T01:52:56.391Z,98.27
2018-10-07T01:53:56.359Z,97.92
2018-10-07T01:54:56.356Z,98.07
2018-10-07T01:55:56.471Z,98.07
2018-10-07T01:56:56.325Z,97.97
2018-10-07T01:57:56.393Z,98.07
2018-10-07T01:58:56.307Z,98.23
2018-10-07T01:59:56.291Z,98.07
2018-10-07T02:00:56.290Z,97.97
2018-10-07T02:01:56.269Z,97.87
2018-10-07T02:02:56.265Z,97.97
2018-10-07T02:03:56.281Z,98.07
2018-10-07T02:04:56.256Z,98.07
2018-10-07T02:05:56.233Z,98.18
2018-10-07T02:06:56.224Z,98.18
2018-10-07T02:07:56.202Z,97.46
2018-10-07T02:08:56.408Z,98.38
2018-10-07T02:09:56.179Z,97.66
2018-10-07T02:10:56.166Z,98.07
2018-10-07T02:11:56.167Z,98.07
2018-10-07T02:12:56.170Z,97.97
2018-10-07T02:13:56.257Z,98.27
2018-10-07T02:14:56.116Z,98.07
2018-10-07T02:15:56.123Z,97.97
2018-10-07T02:16:56.120Z,97.87
2018-10-07T02:17:56.098Z,97.46
2018-10-07T02:18:56.078Z,97.87
2018-10-07T02:19:56.082Z,97.77
2018-10-07T02:20:56.103Z,97.87
2018-10-07T02:21:56.051Z,97.77
2018-10-07T02:22:56.054Z,97.97
2018-10-07T02:23:56.032Z,97.87
2018-10-07T02:24:56.022Z,97.56
2018-10-07T02:25:56.020Z,97.97
2018-10-07T02:26:55.997Z,97.77
2018-10-07T02:27:55.991Z,97.16
2018-10-07T02:28:55.983Z,97.77
2018-10-07T02:29:55.975Z,97.66
2018-10-07T02:30:55.954Z,97.77
2018-10-07T02:31:55.939Z,97.97
2018-10-07T02:32:55.932Z,98.07
2018-10-07T02:33:55.945Z,97.25
2018-10-07T02:34:55.912Z,98.07
2018-10-07T02:35:55.898Z,97.16
2018-10-07T02:36:55.875Z,97.05
2018-10-07T02:37:55.867Z,97.36
2018-10-07T02:38:55.851Z,97.05
2018-10-07T02:39:55.842Z,97.05
2018-10-07T02:40:55.867Z,97.56
2018-10-07T02:41:55.843Z,97.66
2018-10-07T02:42:55.809Z,97.87
2018-10-07T02:43:55.809Z,98.07
2018-10-07T02:44:55.784Z,97.56
2018-10-07T02:45:55.792Z,97.66
2018-10-07T02:46:55.762Z,97.25
2018-10-07T02:47:55.750Z,97.16
2018-10-07T02:48:55.781Z,96.95
2018-10-07T02:49:55.723Z,97.25
2018-10-07T02:50:55.721Z,97.46
2018-10-07T02:51:55.722Z,97.25
2018-10-07T02:52:55.737Z,97.16
2018-10-07T02:53:55.681Z,97.05
2018-10-07T02:54:55.679Z,96.95
2018-10-07T02:55:55.665Z,96.95
2018-10-07T02:56:55.689Z,97.25
2018-10-07T02:57:55.657Z,97.16
2018-10-07T02:58:55.661Z,97.25
2018-10-07T02:59:55.627Z,97.56
2018-10-07T03:00:55.641Z,97.66
2018-10-07T03:01:55.660Z,97.87
2018-10-07T03:02:56.357Z,98.07
2018-10-07T03:03:55.593Z,97.97
2018-10-07T03:04:55.602Z,98.27
2018-10-07T03:05:55.555Z,98.07
2018-10-07T03:06:55.573Z,98.07
2018-10-07T03:07:55.537Z,98.07
2018-10-07T03:08:55.552Z,97.87
2018-10-07T03:09:55.548Z,97.97
2018-10-07T03:10:55.518Z,98.07
2018-10-07T03:11:55.490Z,97.97
2018-10-07T03:12:55.488Z,97.97
2018-10-07T03:13:55.532Z,97.87
2018-10-07T03:14:55.460Z,96.95
2018-10-07T03:15:55.445Z,96.95
2018-10-07T03:16:55.457Z,97.16
2018-10-07T03:17:55.477Z,97.16
2018-10-07T03:18:55.422Z,97.46
2018-10-07T03:19:55.442Z,97.09
2018-10-07T03:20:55.397Z,97.16
2018-10-07T03:21:55.393Z,97.87
2018-10-07T03:22:55.406Z,97.05
2018-10-07T03:23:55.360Z,97.09
2018-10-07T03:24:55.374Z,97.00
2018-10-07T03:25:55.336Z,97.50
2018-10-07T03:26:55.327Z,97.36
2018-10-07T03:27:55.324Z,97.25
2018-10-07T03:28:55.315Z,97.20
2018-10-07T03:29:55.345Z,97.20
2018-10-07T03:30:55.277Z,97.00
2018-10-07T03:31:55.302Z,97.30
2018-10-07T03:32:55.315Z,97.91
2018-10-07T03:33:55.253Z,98.02
2018-10-07T03:34:55.320Z,97.81
2018-10-07T03:35:55.256Z,97.91
2018-10-07T03:36:55.236Z,97.91
2018-10-07T03:37:55.218Z,97.71
2018-10-07T03:38:55.196Z,98.32
2018-10-07T03:39:55.202Z,98.02
2018-10-07T03:40:55.168Z,98.11
2018-10-07T03:41:55.193Z,97.91
2018-10-07T03:42:55.172Z,98.11
2018-10-07T03:43:55.175Z,98.11
2018-10-07T03:44:55.120Z,98.02
2018-10-07T03:45:55.122Z,98.11
2018-10-07T03:46:55.101Z,98.11
2018-10-07T03:47:55.110Z,98.32
2018-10-07T03:48:55.075Z,98.11
2018-10-07T03:49:55.100Z,98.11
2018-10-07T03:50:55.085Z,98.02
2018-10-07T03:51:55.041Z,98.11
2018-10-07T03:52:55.035Z,98.11
2018-10-07T03:53:55.019Z,98.11
2018-10-07T03:54:55.017Z,98.02
2018-10-07T03:55:55.035Z,98.11
2018-10-07T03:56:54.986Z,97.81
2018-10-07T03:57:54.980Z,97.91
2018-10-07T03:58:54.972Z,97.81
2018-10-07T03:59:54.972Z,97.61
2018-10-07T04:00:54.940Z,97.71
2018-10-07T04:01:54.931Z,97.71
2018-10-07T04:02:54.927Z,97.91
2018-10-07T04:03:54.940Z,97.91
2018-10-07T04:04:54.900Z,97.50
2018-10-07T04:05:54.908Z,97.91
2018-10-07T04:06:54.877Z,98.32
2018-10-07T04:07:54.867Z,97.91
2018-10-07T04:08:54.848Z,98.11
2018-10-07T04:09:54.836Z,98.02
2018-10-07T04:10:54.834Z,98.11
2018-10-07T04:11:54.813Z,98.11
2018-10-07T04:12:54.805Z,98.22
2018-10-07T04:13:54.800Z,97.81
2018-10-07T04:14:54.779Z,97.81
2018-10-07T04:15:54.789Z,97.81
2018-10-07T04:16:54.761Z,97.81
2018-10-07T04:17:54.773Z,97.81
2018-10-07T04:18:54.758Z,97.71
2018-10-07T04:19:54.724Z,97.81
2018-10-07T04:20:54.729Z,97.40
2018-10-07T04:21:54.719Z,97.61
2018-10-07T04:22:54.691Z,97.71
2018-10-07T04:23:54.696Z,97.61
2018-10-07T04:24:54.671Z,97.71
2018-10-07T04:25:54.660Z,97.81
2018-10-07T04:26:54.666Z,97.91
2018-10-07T04:27:54.670Z,97.81
2018-10-07T04:28:54.700Z,97.81
2018-10-07T04:29:54.623Z,97.71
2018-10-07T04:30:54.626Z,98.02
2018-10-07T04:31:54.630Z,97.71
2018-10-07T04:32:54.585Z,97.61
2018-10-07T04:33:54.572Z,98.02
2018-10-07T04:34:54.575Z,98.02
2018-10-07T04:35:54.541Z,98.02
2018-10-07T04:36:54.545Z,97.71
2018-10-07T04:37:54.565Z,97.71
2018-10-07T04:38:54.508Z,97.71
2018-10-07T04:39:54.596Z,97.50
2018-10-07T04:40:54.497Z,97.61
2018-10-07T04:41:54.512Z,97.81
2018-10-07T04:42:54.557Z,98.22
2018-10-07T04:43:54.482Z,98.02
2018-10-07T04:44:54.452Z,98.11
2018-10-07T04:45:54.561Z,98.22
2018-10-07T04:46:54.444Z,98.02
2018-10-07T04:47:54.457Z,98.11
2018-10-07T04:48:54.434Z,98.43
2018-10-07T04:49:54.461Z,98.43
2018-10-07T04:50:54.378Z,98.83
2018-10-07T04:51:54.382Z,98.43
2018-10-07T04:52:54.427Z,98.43
2018-10-07T04:53:54.377Z,98.43
2018-10-07T04:54:54.340Z,98.43
2018-10-07T04:55:54.395Z,98.02
2018-10-07T04:56:54.313Z,98.22
2018-10-07T04:57:54.310Z,98.02
2018-10-07T04:58:54.345Z,98.02
2018-10-07T04:59:54.308Z,97.50
2018-10-07T05:00:54.274Z,97.71
2018-10-07T05:01:54.317Z,97.50
2018-10-07T05:02:54.265Z,97.81
2018-10-07T05:03:54.237Z,97.81
2018-10-07T05:04:54.231Z,97.61
2018-10-07T05:05:54.217Z,97.61
2018-10-07T05:06:54.308Z,97.91
2018-10-07T05:07:54.239Z,97.81
2018-10-07T05:08:54.218Z,97.81
2018-10-07T05:09:54.173Z,98.02
2018-10-07T05:10:54.160Z,97.81
2018-10-07T05:11:54.212Z,97.71
2018-10-07T05:12:54.155Z,97.91
2018-10-07T05:13:54.164Z,97.87
2018-10-07T05:14:54.138Z,97.61
2018-10-07T05:15:54.103Z,98.11
2018-10-07T05:16:54.125Z,98.32
2018-10-07T05:17:54.079Z,97.71
2018-10-07T05:18:54.074Z,97.09
2018-10-07T05:19:54.106Z,97.09
2018-10-07T05:20:54.089Z,97.00
2018-10-07T05:21:54.043Z,97.50
2018-10-07T05:22:54.028Z,97.20
2018-10-07T05:23:54.017Z,97.71
2018-10-07T05:24:54.027Z,98.02
2018-10-07T05:25:53.995Z,98.02
2018-10-07T05:26:53.984Z,97.50
2018-10-07T05:27:53.984Z,97.91
2018-10-07T05:28:54.009Z,98.02
2018-10-07T05:29:53.996Z,97.71
2018-10-07T05:30:53.973Z,97.50
2018-10-07T05:31:53.963Z,98.02
2018-10-07T05:32:53.941Z,98.02
2018-10-07T05:33:53.909Z,98.11
2018-10-07T05:34:53.917Z,97.91
2018-10-07T05:35:53.903Z,97.71
2018-10-07T05:36:53.904Z,97.91
2018-10-07T05:37:53.855Z,97.61
2018-10-07T05:38:53.896Z,97.81
2018-10-07T05:39:53.834Z,98.22
2018-10-07T05:40:53.901Z,98.02
2018-10-07T05:41:53.862Z,98.88
2018-10-07T05:42:53.810Z,98.68
2018-10-07T05:43:53.813Z,98.57
2018-10-07T05:44:53.842Z,98.36
2018-10-07T05:45:53.792Z,98.47
2018-10-07T05:46:53.794Z,99.08
2018-10-07T05:47:53.844Z,98.98
2018-10-07T05:48:53.764Z,98.98
2018-10-07T05:49:53.721Z,98.98
2018-10-07T05:50:53.774Z,98.77
2018-10-07T05:51:53.726Z,99.04
2018-10-07T05:52:53.691Z,98.83
2018-10-07T05:53:53.677Z,99.04
2018-10-07T05:54:53.686Z,98.93
2018-10-07T05:55:53.665Z,98.68
2018-10-07T05:56:53.696Z,98.22
2018-10-07T05:57:53.644Z,98.52
2018-10-07T05:58:53.631Z,98.22
2018-10-07T05:59:53.649Z,98.43
2018-10-07T06:00:53.625Z,98.32
2018-10-07T06:01:53.683Z,98.52
2018-10-07T06:02:53.584Z,98.43
2018-10-07T06:03:53.592Z,98.43
2018-10-07T06:04:53.641Z,98.52
2018-10-07T06:05:53.582Z,98.43
2018-10-07T06:06:53.561Z,98.32
2018-10-07T06:07:53.527Z,98.43
2018-10-07T06:08:53.529Z,98.52
2018-10-07T06:09:53.528Z,98.93
2018-10-07T06:10:53.482Z,98.93
2018-10-07T06:11:53.501Z,98.93
2018-10-07T06:12:53.913Z,98.83
2018-10-07T06:13:53.448Z,98.99
2018-10-07T06:14:53.477Z,98.93
2018-10-07T06:15:53.448Z,98.79
2018-10-07T06:16:53.416Z,98.89
2018-10-07T06:17:53.424Z,98.83
2018-10-07T06:18:53.429Z,98.58
2018-10-07T06:19:53.392Z,98.68
2018-10-07T06:20:53.416Z,99.29
2018-10-07T06:21:53.381Z,99.19
2018-10-07T06:22:53.354Z,98.99
2018-10-07T06:23:53.380Z,98.89
2018-10-07T06:24:53.340Z,99.09
2018-10-07T06:25:53.896Z,98.84
2018-10-07T06:26:53.316Z,98.79
2018-10-07T06:27:53.316Z,98.68
2018-10-07T06:28:53.327Z,98.68
2018-10-07T06:29:53.311Z,99.19
2018-10-07T06:30:53.282Z,98.58
2018-10-07T06:31:53.248Z,99.15
2018-10-07T06:32:53.249Z,98.64
2018-10-07T06:33:53.273Z,99.35
2018-10-07T06:34:53.219Z,99.45
2018-10-07T06:35:53.261Z,99.35
2018-10-07T06:36:53.203Z,99.25
2018-10-07T06:37:53.188Z,99.15
2018-10-07T06:38:53.239Z,99.04
2018-10-07T06:39:53.190Z,98.54
2018-10-07T06:40:53.152Z,98.59
2018-10-07T06:41:53.147Z,98.49
2018-10-07T06:42:53.151Z,98.74
2018-10-07T06:43:53.122Z,98.13
2018-10-07T06:44:53.102Z,98.74
2018-10-07T06:45:53.212Z,97.92
2018-10-07T06:46:53.096Z,97.92
2018-10-07T06:47:53.098Z,98.23
2018-10-07T06:48:53.904Z,97.92
2018-10-07T06:49:53.056Z,97.82
2018-10-07T06:50:53.040Z,98.13
2018-10-07T06:51:53.048Z,98.33
2018-10-07T06:52:53.022Z,98.69
2018-10-07T06:53:53.018Z,98.69
2018-10-07T06:54:53.001Z,98.59
2018-10-07T06:55:52.990Z,98.79
2018-10-07T06:56:52.985Z,98.28
2018-10-07T06:57:52.967Z,97.98
2018-10-07T06:58:52.957Z,97.78
2018-10-07T06:59:52.981Z,97.47
2018-10-07T07:00:52.947Z,97.78
2018-10-07T07:01:53.002Z,97.37
2018-10-07T07:02:52.921Z,97.98
2018-10-07T07:03:52.903Z,97.47
2018-10-07T07:04:52.891Z,97.88
2018-10-07T07:05:52.901Z,97.98
2018-10-07T07:06:52.877Z,97.88
2018-10-07T07:07:52.856Z,97.98
2018-10-07T07:08:52.861Z,97.47
2018-10-07T07:09:52.847Z,97.47
2018-10-07T07:10:52.834Z,97.37
2018-10-07T07:11:52.868Z,97.67
2018-10-07T07:12:52.865Z,97.88
2018-10-07T07:13:52.802Z,97.57
2018-10-07T07:14:52.776Z,97.57
2018-10-07T07:15:52.774Z,97.63
2018-10-07T07:16:52.791Z,97.63
2018-10-07T07:17:52.745Z,97.93
2018-10-07T07:18:52.770Z,97.57
2018-10-07T07:19:52.821Z,97.78
2018-10-07T07:20:52.769Z,97.53
2018-10-07T07:21:53.014Z,97.93
2018-10-07T07:22:52.733Z,97.63
2018-10-07T07:23:52.693Z,97.83
2018-10-07T07:24:52.689Z,97.53
2018-10-07T07:25:52.656Z,97.42
2018-10-07T07:26:52.644Z,97.63
2018-10-07T07:27:52.681Z,97.73
2018-10-07T07:28:52.632Z,97.83
2018-10-07T07:29:52.613Z,97.83
2018-10-07T07:30:52.638Z,97.58
2018-10-07T07:31:52.585Z,97.69
2018-10-07T07:32:52.641Z,97.89
2018-10-07T07:33:52.565Z,97.89
2018-10-07T07:34:52.555Z,97.69
2018-10-07T07:35:52.578Z,97.69
2018-10-07T07:36:52.693Z,97.69
2018-10-07T07:37:52.537Z,97.78
2018-10-07T07:38:52.554Z,98.45
2018-10-07T07:39:52.513Z,98.55
2018-10-07T07:40:52.488Z,97.99
2018-10-07T07:41:52.501Z,97.94
2018-10-07T07:42:52.470Z,98.25
2018-10-07T07:43:52.467Z,97.64
2018-10-07T07:44:52.445Z,97.84
2018-10-07T07:45:52.435Z,96.72
2018-10-07T07:46:52.415Z,96.72
2018-10-07T07:47:52.456Z,96.78
2018-10-07T07:48:52.427Z,96.37
2018-10-07T07:49:52.410Z,96.47
2018-10-07T07:50:52.394Z,96.98
2018-10-07T07:51:52.378Z,96.07
2018-10-07T07:52:52.352Z,96.27
2018-10-07T07:53:52.356Z,95.56
2018-10-07T07:54:52.344Z,95.66
2018-10-07T07:55:52.316Z,95.01
2018-10-07T07:56:52.318Z,94.90
2018-10-07T07:57:52.321Z,93.18
2018-10-07T07:58:52.279Z,92.26
2018-10-07T07:59:52.308Z,92.22
2018-10-07T08:00:52.264Z,92.22
2018-10-07T08:01:52.246Z,91.82
2018-10-07T08:02:52.243Z,92.22
2018-10-07T08:03:52.246Z,90.90
2018-10-07T08:04:52.243Z,91.71
2018-10-07T08:05:52.207Z,90.90
2018-10-07T08:06:52.197Z,91.67
2018-10-07T08:07:52.209Z,90.66
2018-10-07T08:08:52.239Z,90.45
2018-10-07T08:09:52.230Z,90.14
2018-10-07T08:10:52.145Z,90.75
2018-10-07T08:11:52.135Z,90.92
2018-10-07T08:12:52.154Z,90.51
2018-10-07T08:13:52.112Z,90.71
2018-10-07T08:14:52.105Z,90.41
2018-10-07T08:15:52.150Z,90.51
2018-10-07T08:16:52.108Z,90.20
2018-10-07T08:17:52.208Z,90.20
2018-10-07T08:18:52.065Z,89.29
2018-10-07T08:19:52.045Z,88.58
2018-10-07T08:20:52.083Z,88.78
2018-10-07T08:21:52.033Z,88.38
2018-10-07T08:22:52.050Z,88.68
2018-10-07T08:23:52.102Z,89.25
2018-10-07T08:24:52.013Z,87.67
2018-10-07T08:25:52.017Z,87.43
2018-10-07T08:26:51.988Z,85.90
2018-10-07T08:27:52.001Z,87.12
2018-10-07T08:28:51.945Z,87.32
2018-10-07T08:29:51.935Z,85.70
2018-10-07T08:30:51.939Z,86.00
2018-10-07T08:31:51.924Z,85.30
2018-10-07T08:32:51.958Z,85.80
2018-10-07T08:33:51.909Z,85.60
2018-10-07T08:34:51.883Z,87.08
2018-10-07T08:35:51.875Z,86.07
2018-10-07T08:36:51.878Z,87.22
2018-10-07T08:37:51.853Z,87.48
2018-10-07T08:38:51.834Z,87.18
2018-10-07T08:39:51.832Z,85.96
2018-10-07T08:40:51.812Z,87.48
2018-10-07T08:41:51.842Z,86.68
2018-10-07T08:42:51.812Z,86.37
2018-10-07T08:43:51.782Z,86.47
2018-10-07T08:44:51.770Z,86.68
2018-10-07T08:45:51.792Z,87.28
2018-10-07T08:46:51.773Z,86.13
2018-10-07T08:47:51.743Z,87.59
2018-10-07T08:48:51.728Z,87.85
2018-10-07T08:49:51.744Z,86.22
2018-10-07T08:50:51.705Z,86.33
2018-10-07T08:51:51.717Z,85.58
2018-10-07T08:52:51.709Z,85.68
2018-10-07T08:53:51.732Z,85.78
2018-10-07T08:54:51.698Z,84.77
2018-10-07T08:55:51.648Z,85.13
2018-10-07T08:56:51.639Z,82.75
2018-10-07T08:57:51.640Z,83.01
2018-10-07T08:58:51.623Z,83.51
2018-10-07T08:59:51.606Z,82.40
2018-10-07T09:00:51.598Z,81.49
2018-10-07T09:01:51.588Z,80.98
2018-10-07T09:02:51.580Z,81.35
2018-10-07T09:03:51.578Z,80.64
2018-10-07T09:04:51.544Z,80.64
2018-10-07T09:05:51.541Z,80.94
2018-10-07T09:06:51.528Z,80.00
2018-10-07T09:07:51.522Z,78.21
2018-10-07T09:08:51.685Z,78.99
2018-10-07T09:09:51.533Z,75.45
2018-10-07T09:10:51.516Z,76.05
2018-10-07T09:11:51.497Z,77.57
2018-10-07T09:12:51.464Z,78.08
2018-10-07T09:13:51.496Z,78.14
2018-10-07T09:14:51.451Z,76.72
2018-10-07T09:15:51.443Z,77.23
2018-10-07T09:16:51.414Z,76.32
2018-10-07T09:17:51.417Z,76.52
2018-10-07T09:18:51.434Z,76.93
2018-10-07T09:19:51.433Z,75.92
2018-10-07T09:20:51.413Z,74.80
2018-10-07T09:21:51.387Z,74.60
2018-10-07T09:22:51.372Z,74.80
2018-10-07T09:23:51.389Z,74.40
2018-10-07T09:24:51.355Z,75.41
2018-10-07T09:25:51.347Z,75.41
2018-10-07T09:26:51.393Z,75.31
2018-10-07T09:27:51.295Z,74.30
2018-10-07T09:28:51.284Z,73.28
2018-10-07T09:29:51.295Z,73.08
2018-10-07T09:30:51.293Z,72.28
2018-10-07T09:31:51.271Z,72.99
2018-10-07T09:32:51.296Z,73.59
2018-10-07T09:33:51.251Z,73.08
2018-10-07T09:34:51.213Z,73.59
2018-10-07T09:35:51.204Z,71.73
2018-10-07T09:36:51.267Z,71.87
2018-10-07T09:37:51.176Z,72.08
2018-10-07T09:38:51.171Z,72.58
2018-10-07T09:39:51.204Z,72.58
2018-10-07T09:40:51.172Z,71.77
2018-10-07T09:41:51.130Z,71.77
2018-10-07T09:42:51.139Z,72.28
2018-10-07T09:43:51.115Z,72.17
2018-10-07T09:44:51.137Z,71.97
2018-10-07T09:45:51.093Z,71.87
2018-10-07T09:46:51.166Z,71.77
2018-10-07T09:47:51.124Z,72.78
2018-10-07T09:48:51.090Z,73.69
2018-10-07T09:49:51.054Z,72.68
2018-10-07T09:50:51.085Z,73.39
2018-10-07T09:51:51.066Z,72.95
2018-10-07T09:52:51.053Z,73.69
2018-10-07T09:53:51.054Z,72.78
2018-10-07T09:54:50.994Z,70.86
2018-10-07T09:55:51.000Z,71.37
2018-10-07T09:56:50.992Z,71.26
2018-10-07T09:57:50.978Z,72.17
2018-10-07T09:58:50.972Z,71.23
2018-10-07T09:59:50.947Z,71.13
2018-10-07T10:00:50.930Z,71.33
2018-10-07T10:01:50.912Z,70.62
2018-10-07T10:02:50.978Z,72.55
2018-10-07T10:03:50.925Z,71.03
2018-10-07T10:04:50.892Z,70.93
2018-10-07T10:05:50.870Z,70.53
2018-10-07T10:06:50.894Z,70.83
2018-10-07T10:07:50.896Z,71.10
2018-10-07T10:08:50.856Z,71.84
2018-10-07T10:09:50.931Z,71.23
2018-10-07T10:10:50.813Z,71.33
2018-10-07T10:11:50.800Z,71.10
2018-10-07T10:12:50.795Z,71.40
2018-10-07T10:13:50.794Z,71.10
2018-10-07T10:14:50.756Z,71.30
2018-10-07T10:15:50.747Z,70.89
2018-10-07T10:16:50.755Z,71.00
2018-10-07T10:17:50.749Z,71.50
2018-10-07T10:18:50.731Z,72.31
2018-10-07T10:19:50.707Z,72.91
2018-10-07T10:20:50.704Z,72.91
2018-10-07T10:21:50.719Z,71.91
2018-10-07T10:22:50.684Z,71.40
2018-10-07T10:23:50.672Z,72.21
2018-10-07T10:24:50.692Z,71.50
2018-10-07T10:25:50.725Z,71.80
2018-10-07T10:26:50.624Z,71.57
2018-10-07T10:27:50.632Z,70.89
2018-10-07T10:28:50.625Z,72.68
2018-10-07T10:29:50.617Z,72.48
2018-10-07T10:30:50.689Z,72.38
2018-10-07T10:31:50.585Z,70.66
2018-10-07T10:32:50.709Z,70.73
2018-10-07T10:33:50.547Z,69.92
2018-10-07T10:34:50.548Z,69.24
2018-10-07T10:35:50.535Z,70.12
2018-10-07T10:36:50.572Z,70.42
2018-10-07T10:37:50.515Z,71.67
2018-10-07T10:38:50.525Z,71.23
2018-10-07T10:39:50.493Z,70.83
2018-10-07T10:40:50.484Z,70.69
2018-10-07T10:41:50.465Z,70.39
2018-10-07T10:42:50.463Z,69.89
2018-10-07T10:43:50.483Z,70.39
2018-10-07T10:44:50.438Z,70.59
2018-10-07T10:45:50.460Z,70.89
2018-10-07T10:46:50.443Z,70.49
2018-10-07T10:47:50.403Z,70.39
2018-10-07T10:48:50.404Z,69.59
2018-10-07T10:49:50.377Z,69.89
2018-10-07T10:50:50.365Z,69.48
2018-10-07T10:51:50.417Z,70.29
2018-10-07T10:52:50.345Z,70.19
2018-10-07T10:53:50.379Z,70.36
2018-10-07T10:54:50.411Z,68.85
2018-10-07T10:55:50.331Z,68.44
2018-10-07T10:56:50.315Z,69.95
2018-10-07T10:57:50.299Z,70.06
2018-10-07T10:58:50.274Z,70.15
2018-10-07T10:59:50.298Z,68.54
2018-10-07T11:00:50.265Z,69.75
2018-10-07T11:01:50.281Z,70.46
2018-10-07T11:02:50.242Z,68.95
2018-10-07T11:03:50.212Z,69.55
2018-10-07T11:04:50.240Z,70.26
2018-10-07T11:05:50.201Z,68.04
2018-10-07T11:06:50.191Z,68.11
2018-10-07T11:07:50.220Z,69.42
2018-10-07T11:08:50.233Z,69.95
2018-10-07T11:09:50.233Z,69.92
2018-10-07T11:10:50.146Z,69.15
2018-10-07T11:11:50.172Z,68.54
2018-10-07T11:12:50.139Z,69.42
2018-10-07T11:13:50.222Z,68.65
2018-10-07T11:14:50.123Z,68.21
2018-10-07T11:15:50.114Z,69.42
2018-10-07T11:16:50.097Z,69.21
2018-10-07T11:17:50.094Z,69.52
2018-10-07T11:18:50.045Z,67.91
2018-10-07T11:19:50.037Z,68.01
2018-10-07T11:20:50.049Z,68.48
2018-10-07T11:21:50.015Z,66.97
2018-10-07T11:22:50.008Z,68.48
2018-10-07T11:23:50.009Z,68.88
2018-10-07T11:24:49.996Z,68.08
2018-10-07T11:25:50.009Z,67.97
2018-10-07T11:26:50.002Z,67.37
2018-10-07T11:27:49.961Z,67.17
2018-10-07T11:28:49.980Z,67.17
2018-10-07T11:29:49.930Z,67.27
2018-10-07T11:30:49.942Z,68.38
2018-10-07T11:31:49.914Z,67.57
2018-10-07T11:32:49.940Z,67.27
2018-10-07T11:33:49.892Z,68.85
2018-10-07T11:34:50.000Z,68.44
2018-10-07T11:35:49.873Z,69.45
2018-10-07T11:36:49.873Z,67.94
2018-10-07T11:37:49.885Z,65.30
2018-10-07T11:38:49.969Z,65.19
2018-10-07T11:39:49.865Z,65.39
2018-10-07T11:40:49.850Z,65.70
2018-10-07T11:41:49.819Z,63.99
2018-10-07T11:42:49.818Z,65.80
2018-10-07T11:43:49.773Z,65.09
2018-10-07T11:44:49.767Z,65.19
2018-10-07T11:45:49.755Z,65.56
2018-10-07T11:46:49.763Z,64.79
2018-10-07T11:47:49.735Z,64.19
2018-10-07T11:48:49.720Z,66.77
2018-10-07T11:49:49.703Z,67.00
2018-10-07T11:50:49.707Z,66.10
2018-10-07T11:51:49.713Z,64.79
2018-10-07T11:52:49.843Z,64.59
2018-10-07T11:53:49.676Z,65.09
2018-10-07T11:54:49.684Z,65.47
2018-10-07T11:55:49.637Z,65.56
2018-10-07T11:56:49.653Z,64.66
2018-10-07T11:57:49.621Z,65.06
2018-10-07T11:58:49.611Z,64.16
2018-10-07T11:59:49.634Z,63.96
2018-10-07T12:00:49.591Z,65.16
2018-10-07T12:01:49.628Z,64.63
2018-10-07T12:02:49.673Z,63.73
2018-10-07T12:03:49.558Z,64.76
2018-10-07T12:04:49.576Z,62.75
2018-10-07T12:05:49.565Z,62.82
2018-10-07T12:06:49.589Z,62.82
2018-10-07T12:07:49.544Z,64.13
2018-10-07T12:08:49.534Z,63.93
2018-10-07T12:09:49.522Z,63.73
2018-10-07T12:10:49.483Z,63.42
2018-10-07T12:11:49.508Z,63.82
2018-10-07T12:12:49.465Z,62.72
2018-10-07T12:13:49.533Z,63.82
2018-10-07T12:14:49.475Z,64.83
2018-10-07T12:15:49.465Z,64.13
2018-10-07T12:16:49.459Z,63.62
2018-10-07T12:17:49.405Z,63.62
2018-10-07T12:18:49.437Z,62.92
2018-10-07T12:19:49.376Z,63.73
2018-10-07T12:20:49.410Z,62.59
2018-10-07T12:21:49.354Z,64.03
2018-10-07T12:22:49.386Z,62.79
2018-10-07T12:23:49.337Z,63.62
2018-10-07T12:24:49.438Z,62.42
2018-10-07T12:25:49.363Z,63.22
2018-10-07T12:26:49.384Z,64.03
2018-10-07T12:27:49.297Z,63.22
2018-10-07T12:28:49.347Z,64.13
2018-10-07T12:29:49.283Z,62.72
2018-10-07T12:30:49.276Z,63.53
2018-10-07T12:31:49.978Z,63.53
2018-10-07T12:32:49.264Z,63.73
2018-10-07T12:33:49.234Z,63.62
2018-10-07T12:34:49.219Z,63.53
2018-10-07T12:35:49.230Z,63.62
2018-10-07T12:36:49.312Z,64.00
2018-10-07T12:37:49.182Z,64.40
2018-10-07T12:38:49.169Z,63.82
2018-10-07T12:39:49.186Z,63.39
2018-10-07T12:40:49.188Z,64.23
2018-10-07T12:41:49.128Z,64.70
2018-10-07T12:42:49.242Z,63.70
2018-10-07T12:43:49.153Z,62.82
2018-10-07T12:44:49.152Z,63.53
2018-10-07T12:45:49.102Z,63.22
2018-10-07T12:46:49.080Z,63.02
2018-10-07T12:47:49.099Z,63.82
2018-10-07T12:48:49.068Z,64.43
2018-10-07T12:49:49.127Z,63.90
2018-10-07T12:50:49.573Z,64.53
2018-10-07T12:51:49.019Z,63.12
2018-10-07T12:52:49.012Z,64.70
2018-10-07T12:53:49.018Z,64.90